createdAt,value
2022-10-30T00:00:17.674Z,79.60
2022-10-30T00:02:47.650Z,80.40
2022-10-30T00:05:15.713Z,79.90
2022-10-30T00:07:43.795Z,78.40
2022-10-30T00:10:11.740Z,77.20
2022-10-30T00:12:41.111Z,76.10
2022-10-30T00:15:09.668Z,75.80
2022-10-30T00:17:37.472Z,75.70
2022-10-30T00:20:06.233Z,73.00
2022-10-30T00:22:34.107Z,72.50
2022-10-30T00:25:01.883Z,71.90
2022-10-30T00:27:29.670Z,71.50
2022-10-30T00:29:58.766Z,72.30
2022-10-30T00:32:26.647Z,73.20
2022-10-30T00:34:54.397Z,71.00
2022-10-30T00:37:22.146Z,70.80
2022-10-30T00:39:49.900Z,71.40
2022-10-30T00:42:18.379Z,73.00
2022-10-30T00:44:48.775Z,74.00
2022-10-30T00:47:21.656Z,74.80
2022-10-30T00:49:55.658Z,76.20
2022-10-30T00:52:26.740Z,77.10
2022-10-30T00:54:56.538Z,77.40
2022-10-30T00:57:25.097Z,76.70
2022-10-30T00:59:53.387Z,75.30
2022-10-30T01:02:23.534Z,70.70
2022-10-30T01:04:54.221Z,70.70
2022-10-30T01:07:22.047Z,73.30
2022-10-30T01:09:49.934Z,74.40
2022-10-30T01:12:18.981Z,76.50
2022-10-30T01:14:49.920Z,77.40
2022-10-30T01:17:42.079Z,78.30
2022-10-30T01:20:23.696Z,80.00
2022-10-30T01:23:00.942Z,80.80
2022-10-30T01:25:39.410Z,81.70
2022-10-30T01:28:19.829Z,82.00
2022-10-30T01:31:02.404Z,83.00
2022-10-30T01:33:40.119Z,83.40
2022-10-30T01:36:19.025Z,83.50
2022-10-30T01:38:51.949Z,83.00
2022-10-30T01:41:19.764Z,81.20
2022-10-30T01:43:49.738Z,80.60
2022-10-30T01:46:32.720Z,80.40
2022-10-30T01:49:16.365Z,80.10
2022-10-30T01:51:56.096Z,80.20
2022-10-30T01:54:33.735Z,81.20
2022-10-30T01:57:08.553Z,82.50
2022-10-30T01:59:39.113Z,83.30
2022-10-30T02:02:07.461Z,84.50
2022-10-30T02:04:37.490Z,84.90
2022-10-30T02:07:05.581Z,84.70
2022-10-30T02:09:33.414Z,84.80
2022-10-30T02:12:03.628Z,84.20
2022-10-30T02:14:35.646Z,83.70
2022-10-30T02:17:06.728Z,83.70
2022-10-30T02:19:35.848Z,83.90
2022-10-30T02:22:05.196Z,84.00
2022-10-30T02:24:34.709Z,83.90
2022-10-30T02:27:02.578Z,83.60
2022-10-30T02:29:30.502Z,83.40
2022-10-30T02:31:58.292Z,82.50
2022-10-30T02:34:26.118Z,82.60
2022-10-30T02:36:53.881Z,83.70
2022-10-30T02:39:23.064Z,83.10
2022-10-30T02:41:50.881Z,84.30
2022-10-30T02:44:18.627Z,85.80
2022-10-30T02:46:46.412Z,85.40
2022-10-30T02:49:14.155Z,85.90
2022-10-30T02:51:41.924Z,85.90
2022-10-30T02:54:10.744Z,86.40
2022-10-30T02:56:41.356Z,84.60
2022-10-30T02:59:09.272Z,84.30
2022-10-30T03:01:37.186Z,84.50
2022-10-30T03:04:05.423Z,84.10
2022-10-30T03:06:33.700Z,86.30
2022-10-30T03:09:01.476Z,87.00
2022-10-30T03:11:29.227Z,87.70
2022-10-30T03:13:58.398Z,86.90
2022-10-30T03:16:29.300Z,88.40
2022-10-30T03:18:57.561Z,86.20
2022-10-30T03:21:27.197Z,84.20
2022-10-30T03:23:55.815Z,85.50
2022-10-30T03:26:23.872Z,85.90
2022-10-30T03:28:51.664Z,87.10
2022-10-30T03:31:21.117Z,87.50
2022-10-30T03:33:48.895Z,88.00
2022-10-30T03:36:16.749Z,89.30
2022-10-30T03:38:44.578Z,87.40
2022-10-30T03:41:12.344Z,85.90
2022-10-30T03:43:40.112Z,83.10
2022-10-30T03:46:07.870Z,81.80
2022-10-30T03:48:36.989Z,82.50
2022-10-30T03:51:04.896Z,82.40
2022-10-30T03:53:32.647Z,83.70
2022-10-30T03:56:01.975Z,84.40
2022-10-30T03:58:30.861Z,85.10
2022-10-30T04:01:02.368Z,86.00
2022-10-30T04:03:30.447Z,84.60
2022-10-30T04:05:59.768Z,84.10
2022-10-30T04:08:27.755Z,83.10
2022-10-30T04:10:55.594Z,83.20
2022-10-30T04:13:23.389Z,82.60
2022-10-30T04:15:56.410Z,82.20
2022-10-30T04:18:25.946Z,83.40
2022-10-30T04:20:53.807Z,84.10
2022-10-30T04:23:23.614Z,84.80
2022-10-30T04:25:51.382Z,86.00
2022-10-30T04:28:21.165Z,86.00
2022-10-30T04:30:49.379Z,86.70
2022-10-30T04:33:17.632Z,88.10
2022-10-30T04:35:45.530Z,88.50
2022-10-30T04:38:14.970Z,88.10
2022-10-30T04:40:47.327Z,87.80
2022-10-30T04:43:15.878Z,87.80
2022-10-30T04:45:44.099Z,88.60
2022-10-30T04:48:14.119Z,88.20
2022-10-30T04:50:42.238Z,88.10
2022-10-30T04:53:14.044Z,88.90
2022-10-30T04:55:42.254Z,89.90
2022-10-30T04:58:12.127Z,89.60
2022-10-30T05:00:40.645Z,88.80
2022-10-30T05:03:08.389Z,89.70
2022-10-30T05:05:36.132Z,89.30
2022-10-30T05:08:03.904Z,88.20
2022-10-30T05:10:32.708Z,86.80
2022-10-30T05:13:00.914Z,86.30
2022-10-30T05:15:30.232Z,85.70
2022-10-30T05:17:58.260Z,86.90
2022-10-30T05:20:26.248Z,88.10
2022-10-30T05:22:57.646Z,90.40
2022-10-30T05:25:26.442Z,89.80
2022-10-30T05:27:59.631Z,90.10
2022-10-30T05:30:28.233Z,91.50
2022-10-30T05:33:01.056Z,90.10
2022-10-30T05:35:29.874Z,90.00
2022-10-30T05:37:57.851Z,89.60
2022-10-30T05:40:25.728Z,89.90
2022-10-30T05:42:53.817Z,89.00
2022-10-30T05:45:21.956Z,89.20
2022-10-30T05:47:56.715Z,89.80
2022-10-30T05:50:26.883Z,90.40
2022-10-30T05:52:56.888Z,89.90
2022-10-30T05:55:24.746Z,89.90
2022-10-30T05:57:57.615Z,89.40
2022-10-30T06:00:25.697Z,89.70
2022-10-30T06:02:53.574Z,88.60
2022-10-30T06:05:21.397Z,88.70
2022-10-30T06:07:50.487Z,89.10
2022-10-30T06:10:18.448Z,89.70
2022-10-30T06:12:53.689Z,91.90
2022-10-30T06:15:22.067Z,87.60
2022-10-30T06:17:50.292Z,85.90
2022-10-30T06:20:19.230Z,86.30
2022-10-30T06:22:56.627Z,86.30
2022-10-30T06:25:25.255Z,87.10
2022-10-30T06:27:53.312Z,87.30
2022-10-30T06:30:21.650Z,86.10
2022-10-30T06:32:49.693Z,84.90
2022-10-30T06:35:17.863Z,85.90
2022-10-30T06:37:48.752Z,86.10
2022-10-30T06:40:18.468Z,85.60
2022-10-30T06:42:47.431Z,86.70
2022-10-30T06:45:16.527Z,87.60
2022-10-30T06:47:44.697Z,87.50
2022-10-30T06:50:15.105Z,86.40
2022-10-30T06:52:43.247Z,86.30
2022-10-30T06:55:12.018Z,86.20
2022-10-30T06:57:41.141Z,84.30
2022-10-30T07:00:10.234Z,85.10
2022-10-30T07:02:37.988Z,83.20
2022-10-30T07:05:06.568Z,82.70
2022-10-30T07:07:34.395Z,81.70
2022-10-30T07:10:02.198Z,79.50
2022-10-30T07:12:29.966Z,79.50
2022-10-30T07:15:00.147Z,79.20
2022-10-30T07:17:27.877Z,79.50
2022-10-30T07:19:55.626Z,78.10
2022-10-30T07:22:23.389Z,78.70
2022-10-30T07:24:51.197Z,79.00
2022-10-30T07:27:18.961Z,79.40
2022-10-30T07:29:46.737Z,79.20
2022-10-30T07:32:15.896Z,79.10
2022-10-30T07:34:43.660Z,78.30
2022-10-30T07:37:11.416Z,76.40
2022-10-30T07:39:39.150Z,77.00
2022-10-30T07:42:06.987Z,76.40
2022-10-30T07:44:34.732Z,74.70
2022-10-30T07:47:02.531Z,74.70
2022-10-30T07:49:31.615Z,75.00
2022-10-30T07:51:59.982Z,74.50
2022-10-30T07:54:27.712Z,72.90
2022-10-30T07:59:25.346Z,72.80
2022-10-30T08:01:53.243Z,73.50
2022-10-30T08:04:21.181Z,73.50
2022-10-30T08:06:50.297Z,71.80
2022-10-30T08:09:18.037Z,70.90
2022-10-30T08:11:45.770Z,73.20
2022-10-30T08:14:13.503Z,73.10
2022-10-30T08:16:41.255Z,73.40
2022-10-30T08:19:09.004Z,73.50
2022-10-30T08:21:36.753Z,74.10
2022-10-30T08:24:06.343Z,74.50
2022-10-30T08:26:34.269Z,74.50
2022-10-30T08:29:02.039Z,73.80
2022-10-30T08:31:29.794Z,73.40
2022-10-30T08:33:57.550Z,71.30
2022-10-30T08:36:25.293Z,70.50
2022-10-30T08:38:53.024Z,71.30
2022-10-30T08:41:22.149Z,70.60
2022-10-30T08:43:49.880Z,69.90
2022-10-30T08:46:17.653Z,69.00
2022-10-30T08:48:45.408Z,69.30
2022-10-30T08:51:13.262Z,70.10
2022-10-30T08:53:41.033Z,69.70
2022-10-30T08:56:09.144Z,69.10
2022-10-30T08:58:38.227Z,68.40
2022-10-30T09:01:06.192Z,65.50
2022-10-30T09:03:33.979Z,67.00
2022-10-30T09:06:02.507Z,67.00
2022-10-30T09:08:30.344Z,65.70
2022-10-30T09:10:59.012Z,65.70
2022-10-30T09:13:27.100Z,65.40
2022-10-30T09:16:00.055Z,64.30
2022-10-30T09:18:27.873Z,63.60
2022-10-30T09:20:55.656Z,63.50
2022-10-30T09:23:23.494Z,62.20
2022-10-30T09:25:51.543Z,61.00
2022-10-30T09:28:19.342Z,59.70
2022-10-30T09:30:49.708Z,59.50
2022-10-30T09:33:18.796Z,58.40
2022-10-30T09:35:46.528Z,59.20
2022-10-30T09:38:14.277Z,59.60
2022-10-30T09:40:58.072Z,57.30
2022-10-30T09:43:36.529Z,58.70
2022-10-30T09:46:34.040Z,59.90
2022-10-30T09:49:16.803Z,59.00
2022-10-30T09:52:02.537Z,57.90
2022-10-30T09:54:38.386Z,57.00
2022-10-30T09:57:13.885Z,55.90
2022-10-30T09:59:52.363Z,56.00
2022-10-30T10:02:32.682Z,56.50
2022-10-30T10:05:08.184Z,55.30
2022-10-30T10:07:39.684Z,54.20
2022-10-30T10:10:14.248Z,53.50
2022-10-30T10:12:45.070Z,54.80
2022-10-30T10:15:18.735Z,55.40
2022-10-30T10:17:47.629Z,56.30
2022-10-30T10:20:33.098Z,55.30
2022-10-30T10:23:07.364Z,54.70
2022-10-30T10:25:37.046Z,55.40
2022-10-30T10:28:16.342Z,53.80
2022-10-30T10:30:55.381Z,52.60
2022-10-30T10:33:34.706Z,52.00
2022-10-30T10:36:21.251Z,52.30
2022-10-30T10:39:08.612Z,51.30
2022-10-30T10:41:56.936Z,48.20
2022-10-30T10:44:37.224Z,48.50
2022-10-30T10:47:26.750Z,48.20
2022-10-30T10:50:08.004Z,47.70
2022-10-30T10:52:41.230Z,48.30
2022-10-30T10:55:17.150Z,47.90
2022-10-30T10:57:46.043Z,46.30
2022-10-30T11:00:17.653Z,45.70
2022-10-30T11:02:52.031Z,46.40
2022-10-30T11:05:28.577Z,48.10
2022-10-30T11:08:02.052Z,47.40
2022-10-30T11:10:30.029Z,47.60
2022-10-30T11:12:58.131Z,46.90
2022-10-30T11:15:37.315Z,44.50
2022-10-30T11:18:08.047Z,43.50
2022-10-30T11:20:43.289Z,43.00
2022-10-30T11:23:35.297Z,43.00
2022-10-30T11:26:03.711Z,41.70
2022-10-30T11:28:39.945Z,42.10
2022-10-30T11:31:34.639Z,40.90
2022-10-30T11:34:29.442Z,42.90
2022-10-30T11:36:57.198Z,43.10
2022-10-30T11:39:28.019Z,42.10
2022-10-30T11:42:07.795Z,40.40
2022-10-30T11:44:38.643Z,41.40
2022-10-30T11:47:07.634Z,40.30
2022-10-30T11:49:42.100Z,39.60
2022-10-30T11:52:10.793Z,39.50
2022-10-30T11:54:45.135Z,40.70
2022-10-30T11:57:21.655Z,38.30
2022-10-30T11:59:51.720Z,39.50
2022-10-30T12:02:27.034Z,39.40
2022-10-30T12:04:56.492Z,40.50
2022-10-30T12:07:30.816Z,40.60
2022-10-30T12:10:01.735Z,41.20
2022-10-30T12:12:33.200Z,41.30
2022-10-30T12:15:11.573Z,41.80
2022-10-30T12:17:40.732Z,42.30
2022-10-30T12:20:14.817Z,41.60
2022-10-30T12:22:42.759Z,41.10
2022-10-30T12:25:24.475Z,42.00
2022-10-30T12:27:59.118Z,41.90
2022-10-30T12:30:29.137Z,42.00
2022-10-30T12:33:02.311Z,41.20
2022-10-30T12:35:42.534Z,41.70
2022-10-30T12:38:17.747Z,43.70
2022-10-30T12:40:58.080Z,45.30
2022-10-30T12:43:28.113Z,46.00
2022-10-30T12:46:00.305Z,46.20
2022-10-30T12:48:37.117Z,46.20
2022-10-30T12:51:19.761Z,46.60
2022-10-30T12:53:59.056Z,45.50
2022-10-30T12:56:32.439Z,45.60
2022-10-30T12:59:13.308Z,46.00
2022-10-30T13:01:48.732Z,46.20
2022-10-30T13:04:20.081Z,46.40
2022-10-30T13:06:51.706Z,44.90
2022-10-30T13:09:24.786Z,45.90
2022-10-30T13:12:00.290Z,44.20
2022-10-30T13:14:34.483Z,45.10
2022-10-30T13:17:02.258Z,44.20
2022-10-30T13:19:30.017Z,44.30
2022-10-30T13:22:03.320Z,46.10
2022-10-30T13:24:45.346Z,44.20
2022-10-30T13:27:19.259Z,44.40
2022-10-30T13:29:55.465Z,44.40
2022-10-30T13:32:34.558Z,44.00
2022-10-30T13:35:11.739Z,44.20
2022-10-30T13:37:42.736Z,44.10
2022-10-30T13:40:18.442Z,43.10
2022-10-30T13:42:57.768Z,42.80
2022-10-30T13:45:44.516Z,42.60
2022-10-30T13:48:19.767Z,42.90
2022-10-30T13:51:11.078Z,42.50
2022-10-30T13:53:41.783Z,44.10
2022-10-30T13:56:15.980Z,45.20
2022-10-30T13:58:51.072Z,44.80
2022-10-30T14:01:23.584Z,44.00
2022-10-30T14:04:01.048Z,45.00
2022-10-30T14:06:41.015Z,46.80
2022-10-30T14:09:20.750Z,46.50
2022-10-30T14:11:48.515Z,47.30
2022-10-30T14:14:30.858Z,46.80
2022-10-30T14:17:16.764Z,47.10
2022-10-30T14:20:22.099Z,47.50
2022-10-30T14:23:08.711Z,46.70
2022-10-30T14:25:36.936Z,47.60
2022-10-30T14:28:05.427Z,49.00
2022-10-30T14:30:36.674Z,50.20
2022-10-30T14:33:04.585Z,49.80
2022-10-30T14:35:41.089Z,48.90
2022-10-30T14:38:36.330Z,49.00
2022-10-30T14:41:18.237Z,49.00
2022-10-30T14:43:53.467Z,48.90
2022-10-30T14:46:31.309Z,52.40
2022-10-30T14:49:10.756Z,54.10
2022-10-30T14:51:45.769Z,58.20
2022-10-30T14:54:19.157Z,60.20
2022-10-30T14:56:48.104Z,60.60
2022-10-30T14:59:25.093Z,59.10
2022-10-30T15:02:02.143Z,58.90
2022-10-30T15:04:46.623Z,60.20
2022-10-30T15:07:23.814Z,60.80
2022-10-30T15:10:07.547Z,61.90
2022-10-30T15:13:02.336Z,62.00
2022-10-30T15:15:30.988Z,61.90
2022-10-30T15:18:04.439Z,62.10
2022-10-30T15:20:34.372Z,61.60
2022-10-30T15:23:05.727Z,61.80
2022-10-30T15:25:38.244Z,62.30
2022-10-30T15:28:06.844Z,63.00
2022-10-30T15:30:34.684Z,64.00
2022-10-30T15:33:03.988Z,64.70
2022-10-30T15:35:31.888Z,65.50
2022-10-30T15:38:04.772Z,65.60
2022-10-30T15:40:34.228Z,65.80
2022-10-30T15:43:05.407Z,66.10
2022-10-30T15:45:36.852Z,66.40
2022-10-30T15:48:09.896Z,66.60
2022-10-30T15:50:42.205Z,67.20
2022-10-30T15:53:18.915Z,67.80
2022-10-30T15:55:47.895Z,68.20
2022-10-30T15:58:19.604Z,68.80
2022-10-30T16:00:57.040Z,69.20
2022-10-30T16:03:27.403Z,69.10
2022-10-30T16:06:06.132Z,69.10
2022-10-30T16:08:44.411Z,69.40
2022-10-30T16:11:12.652Z,69.30
2022-10-30T16:13:40.714Z,69.50
2022-10-30T16:16:23.408Z,69.80
2022-10-30T16:18:52.950Z,70.00
2022-10-30T16:21:24.543Z,70.00
2022-10-30T16:23:54.278Z,69.80
2022-10-30T16:26:29.864Z,70.00
2022-10-30T16:28:58.467Z,70.30
2022-10-30T16:31:33.747Z,70.40
2022-10-30T16:34:04.336Z,70.20
2022-10-30T16:36:32.834Z,70.30
2022-10-30T16:39:00.923Z,70.10
2022-10-30T16:41:30.652Z,69.80
2022-10-30T16:44:20.255Z,69.80
2022-10-30T16:46:53.282Z,70.40
2022-10-30T16:49:24.684Z,71.10
2022-10-30T16:51:59.705Z,71.30
2022-10-30T16:54:31.171Z,72.20
2022-10-30T16:57:01.294Z,73.10
2022-10-30T16:59:34.018Z,74.30
2022-10-30T17:02:06.308Z,75.30
2022-10-30T17:04:36.811Z,75.50
2022-10-30T17:07:18.653Z,75.90
2022-10-30T17:09:48.488Z,76.30
2022-10-30T17:12:20.487Z,76.30
2022-10-30T17:15:04.166Z,76.20
2022-10-30T17:17:35.141Z,76.20
2022-10-30T17:20:07.895Z,76.10
2022-10-30T17:22:35.835Z,74.20
2022-10-30T17:25:17.093Z,73.20
2022-10-30T17:27:47.906Z,72.00
2022-10-30T17:30:45.780Z,71.10
2022-10-30T17:33:31.309Z,70.70
2022-10-30T17:36:00.549Z,69.80
2022-10-30T17:38:28.636Z,69.00
2022-10-30T17:40:56.459Z,68.80
2022-10-30T17:43:28.281Z,68.50
2022-10-30T17:45:56.101Z,67.90
2022-10-30T17:48:26.689Z,67.60
2022-10-30T17:50:54.615Z,68.40
2022-10-30T17:53:26.541Z,69.70
2022-10-30T17:56:00.069Z,71.30
2022-10-30T17:58:28.001Z,72.10
2022-10-30T18:00:55.778Z,71.10
2022-10-30T18:03:23.759Z,70.90
2022-10-30T18:05:52.823Z,72.60
2022-10-30T18:08:20.584Z,72.20
2022-10-30T18:10:50.502Z,73.20
2022-10-30T18:13:19.448Z,74.70
2022-10-30T18:15:52.958Z,75.30
2022-10-30T18:18:20.750Z,77.30
2022-10-30T18:20:49.164Z,78.50
2022-10-30T18:23:46.620Z,79.30
2022-10-30T18:26:14.917Z,80.50
2022-10-30T18:28:42.988Z,80.90
2022-10-30T18:31:13.484Z,80.60
2022-10-30T18:33:41.579Z,80.20
2022-10-30T18:36:13.477Z,80.60
2022-10-30T18:38:41.334Z,80.40
2022-10-30T18:41:15.278Z,81.20
2022-10-30T18:43:46.603Z,81.30
2022-10-30T18:46:16.101Z,81.20
2022-10-30T18:48:43.910Z,81.40
2022-10-30T18:51:18.269Z,82.10
2022-10-30T18:53:51.991Z,84.90
2022-10-30T18:56:22.976Z,84.90
2022-10-30T18:58:54.928Z,84.10
2022-10-30T19:01:26.736Z,83.00
2022-10-30T19:03:54.641Z,82.80
2022-10-30T19:06:24.194Z,84.50
2022-10-30T19:08:52.048Z,88.10
2022-10-30T19:11:24.893Z,87.80
2022-10-30T19:13:54.184Z,84.10
2022-10-30T19:16:24.355Z,83.10
2022-10-30T19:18:52.224Z,83.00
2022-10-30T19:21:22.167Z,82.80
2022-10-30T19:23:50.199Z,83.60
2022-10-30T19:26:18.353Z,85.70
2022-10-30T19:28:47.480Z,85.50
2022-10-30T19:31:17.719Z,85.80
2022-10-30T19:33:46.081Z,85.50
2022-10-30T19:36:27.760Z,85.30
2022-10-30T19:38:55.860Z,86.00
2022-10-30T19:41:24.669Z,87.00
2022-10-30T19:43:59.859Z,86.20
2022-10-30T19:46:27.613Z,86.30
2022-10-30T19:48:58.179Z,86.10
2022-10-30T19:51:27.026Z,85.20
2022-10-30T19:53:54.783Z,85.20
2022-10-30T19:56:23.140Z,84.90
2022-10-30T19:58:51.177Z,85.00
2022-10-30T20:01:20.491Z,85.00
2022-10-30T20:03:48.375Z,85.40
2022-10-30T20:06:16.242Z,84.90
2022-10-30T20:08:50.756Z,84.90
2022-10-30T20:11:19.811Z,84.40
2022-10-30T20:13:54.613Z,85.70
2022-10-30T20:16:23.881Z,84.30
2022-10-30T20:18:51.660Z,84.90
2022-10-30T20:21:20.610Z,83.90
2022-10-30T20:23:48.410Z,84.00
2022-10-30T20:26:24.179Z,85.70
2022-10-30T20:28:52.435Z,87.20
2022-10-30T20:31:20.237Z,85.80
2022-10-30T20:33:49.344Z,84.10
2022-10-30T20:36:17.231Z,82.70
2022-10-30T20:38:45.050Z,81.70
2022-10-30T20:41:21.814Z,80.60
2022-10-30T20:43:50.067Z,80.10
2022-10-30T20:46:18.131Z,81.20
2022-10-30T20:48:45.971Z,81.20
2022-10-30T20:51:15.537Z,80.70
2022-10-30T20:53:43.342Z,81.30
2022-10-30T20:56:11.791Z,83.40
2022-10-30T20:58:39.740Z,83.60
2022-10-30T21:01:07.845Z,84.30
2022-10-30T21:03:35.727Z,84.50
2022-10-30T21:06:03.551Z,85.00
2022-10-30T21:08:33.032Z,85.10
2022-10-30T21:11:01.592Z,85.40
2022-10-30T21:13:29.864Z,86.60
2022-10-30T21:16:02.000Z,86.80
2022-10-30T21:18:30.058Z,86.80
2022-10-30T21:21:02.082Z,86.60
2022-10-30T21:23:30.123Z,86.40
2022-10-30T21:26:02.884Z,86.00
2022-10-30T21:28:30.783Z,86.30
2022-10-30T21:31:02.161Z,85.50
2022-10-30T21:33:31.713Z,85.80
2022-10-30T21:36:10.626Z,87.00
2022-10-30T21:38:41.440Z,87.30
2022-10-30T21:41:10.784Z,90.10
2022-10-30T21:43:38.595Z,91.80
2022-10-30T21:46:08.821Z,89.90
2022-10-30T21:48:36.641Z,88.90
2022-10-30T21:51:09.184Z,87.60
2022-10-30T21:53:38.249Z,88.40
2022-10-30T21:56:07.829Z,87.60
2022-10-30T21:58:37.509Z,87.90
2022-10-30T22:01:06.488Z,91.40
2022-10-30T22:03:34.815Z,91.40
2022-10-30T22:06:07.094Z,91.80
2022-10-30T22:08:35.188Z,92.30
2022-10-30T22:11:06.744Z,92.50
2022-10-30T22:13:36.325Z,91.80
2022-10-30T22:16:05.169Z,92.30
2022-10-30T22:18:33.359Z,93.20
2022-10-30T22:21:02.176Z,93.30
2022-10-30T22:23:30.841Z,93.60
2022-10-30T22:26:00.437Z,93.90
2022-10-30T22:28:29.391Z,93.50
2022-10-30T22:31:02.667Z,94.30
2022-10-30T22:33:31.427Z,95.50
2022-10-30T22:36:03.279Z,93.90
2022-10-30T22:38:31.115Z,92.70
2022-10-30T22:41:08.786Z,93.10
2022-10-30T22:43:36.537Z,92.10
2022-10-30T22:46:05.804Z,92.80
2022-10-30T22:48:33.920Z,93.30
2022-10-30T22:51:03.638Z,94.00
2022-10-30T22:53:33.165Z,95.40
2022-10-30T22:56:01.289Z,94.20
2022-10-30T22:58:30.214Z,94.80
2022-10-30T23:01:09.421Z,93.40
2022-10-30T23:03:37.215Z,95.90
2022-10-30T23:06:05.292Z,94.30
2022-10-30T23:08:33.051Z,94.20
2022-10-30T23:11:01.062Z,92.60
2022-10-30T23:13:28.926Z,92.70
2022-10-30T23:16:01.526Z,92.90
2022-10-30T23:18:31.235Z,94.10
2022-10-30T23:21:02.198Z,95.60
2022-10-30T23:23:30.257Z,95.50
2022-10-30T23:26:03.566Z,96.10
2022-10-30T23:28:31.410Z,97.00
2022-10-30T23:30:59.200Z,98.30
2022-10-30T23:33:26.969Z,99.00
2022-10-30T23:36:00.859Z,96.60
2022-10-30T23:38:28.656Z,96.10
2022-10-30T23:40:56.682Z,95.20
2022-10-30T23:43:24.516Z,95.00
2022-10-30T23:45:52.377Z,94.50
2022-10-30T23:48:20.137Z,93.90
2022-10-30T23:50:47.911Z,94.10
2022-10-30T23:53:17.106Z,93.30
2022-10-30T23:55:51.656Z,93.20
2022-10-30T23:58:19.556Z,94.30
